Time;durP1;ratioP1;P1;durP2;ratioP2;P2;SDS_P1;SDS_P2;PMS_P1;PMS_P2;Temp;Humidity;BMP_temperature;BMP_pressure;BME280_temperature;BME280_humidity;BME280_pressure;Samples;Min_cycle;Max_cycle;Signal;HPM_P1;HPM_P2
2023/04/05 00:01:24;;;;;;;5.13;4.20;;;;;;;2.83;58.80;100034.13;5024715;28;20325;-80
2023/04/05 00:03:54;;;;;;;8.07;4.18;;;;;;;2.78;58.91;100030.78;5021197;28;20225;-80
2023/04/05 00:06:27;;;;;;;6.40;3.88;;;;;;;2.76;59.22;100032.59;5020088;28;20687;-80
2023/04/05 00:09:03;;;;;;;5.13;4.30;;;;;;;2.76;59.03;100033.44;5020543;28;20245;-80
2023/04/05 00:11:32;;;;;;;7.20;3.63;;;;;;;2.75;59.09;100030.88;5021050;28;20254;-80
2023/04/05 00:14:01;;;;;;;10.25;4.90;;;;;;;2.73;59.15;100033.53;5020714;28;20223;-80
2023/04/05 00:16:28;;;;;;;4.80;3.45;;;;;;;2.69;59.23;100036.22;5020915;28;20197;-80
2023/04/05 00:18:55;;;;;;;6.22;3.22;;;;;;;2.65;59.49;100033.72;5021063;28;20298;-80
2023/04/05 00:21:22;;;;;;;6.43;4.53;;;;;;;2.64;59.28;100033.72;5021157;28;20235;-80
2023/04/05 00:23:57;;;;;;;7.55;4.55;;;;;;;2.62;59.47;100035.53;5019616;28;20228;-80
2023/04/05 00:26:23;;;;;;;6.80;5.00;;;;;;;2.57;59.98;100022.66;5003061;28;20210;-80
2023/04/05 00:28:52;;;;;;;5.25;3.58;;;;;;;2.58;59.78;100026.94;5002253;28;20205;-80
2023/04/05 00:31:18;;;;;;;9.27;4.47;;;;;;;2.60;59.74;100026.94;5021241;28;20703;-80
2023/04/05 00:33:44;;;;;;;6.43;4.27;;;;;;;2.63;59.54;100021.66;5002216;28;20239;-80
2023/04/05 00:36:19;;;;;;;6.95;4.10;;;;;;;2.68;59.45;100026.75;5020300;28;20804;-80
2023/04/05 00:38:46;;;;;;;5.97;5.28;;;;;;;2.71;59.56;100022.31;5021271;28;20241;-80
2023/04/05 00:41:13;;;;;;;4.25;3.85;;;;;;;2.75;59.88;100018.75;5022339;28;20241;-80
2023/04/05 00:43:39;;;;;;;4.80;4.38;;;;;;;2.76;59.78;100014.44;5005193;28;20222;-80
2023/04/05 00:46:05;;;;;;;4.70;3.20;;;;;;;2.76;59.91;100017.03;5018644;28;20273;-80
2023/04/05 00:48:32;;;;;;;6.25;3.45;;;;;;;2.78;59.94;100016.09;5000373;28;20183;-81
2023/04/05 00:50:58;;;;;;;5.25;4.53;;;;;;;2.78;60.04;100013.50;4999804;28;20226;-80
2023/04/05 00:53:26;;;;;;;5.20;4.00;;;;;;;2.78;60.36;100020.41;5015682;28;20214;-80
2023/04/05 00:55:52;;;;;;;5.93;3.67;;;;;;;2.80;60.18;100016.06;5016542;28;20509;-80
2023/04/05 00:58:20;;;;;;;4.65;4.25;;;;;;;2.83;59.99;100006.44;4998725;28;20269;-80
2023/04/05 01:01:12;;;;;;;9.20;4.00;;;;;;;2.86;60.25;100008.97;4987907;28;20219;-80
2023/04/05 01:03:42;;;;;;;6.10;3.47;;;;;;;2.80;60.38;100016.06;5017115;28;20679;-80
2023/04/05 01:06:33;;;;;;;6.00;4.95;;;;;;;2.75;60.24;100010.97;4998776;28;20210;-80
2023/04/05 01:09:07;;;;;;;4.05;3.75;;;;;;;2.73;60.43;100002.41;5016694;28;20273;-80
2023/04/05 01:11:34;;;;;;;4.35;3.70;;;;;;;2.71;60.41;99998.13;5015720;28;20690;-80
2023/04/05 01:14:01;;;;;;;5.03;4.00;;;;;;;2.68;60.26;99993.88;5016045;28;20187;-80
2023/04/05 01:16:27;;;;;;;6.10;4.20;;;;;;;2.69;60.40;99976.56;5017631;28;20187;-80
2023/04/05 01:18:57;;;;;;;4.13;3.73;;;;;;;2.68;60.79;99982.66;5020183;28;20179;-80
2023/04/05 01:21:37;;;;;;;4.50;4.10;;;;;;;2.70;60.45;99975.66;5021072;28;20524;-80
2023/04/05 01:24:13;;;;;;;6.50;3.78;;;;;;;2.71;60.85;99978.22;5019719;28;20651;-81
2023/04/05 01:27:01;;;;;;;7.93;4.25;;;;;;;2.76;60.79;99970.34;5002449;28;20194;-80
2023/04/05 01:29:51;;;;;;;6.65;3.60;;;;;;;2.76;60.53;99968.59;5001897;28;20194;-80
2023/04/05 01:32:20;;;;;;;7.25;3.72;;;;;;;2.78;60.14;99964.22;5002274;28;20853;-81
2023/04/05 01:35:21;;;;;;;7.10;4.05;;;;;;;2.79;60.18;99960.72;5019077;28;20185;-80
2023/04/05 01:37:49;;;;;;;4.78;3.90;;;;;;;2.79;60.53;99965.91;5001754;28;20188;-80
2023/04/05 01:40:15;;;;;;;5.28;4.78;;;;;;;2.79;60.57;99965.06;5019120;28;20307;-80
2023/04/05 01:42:43;;;;;;;4.80;4.37;;;;;;;2.79;60.18;99965.91;5018917;28;20651;-80
2023/04/05 01:45:08;;;;;;;4.93;4.53;;;;;;;2.80;59.80;99956.38;4991968;28;20473;-80
2023/04/05 01:47:34;;;;;;;4.80;4.40;;;;;;;2.81;59.76;99961.53;5019907;28;20200;-80
2023/04/05 01:49:59;;;;;;;9.53;4.73;;;;;;;2.86;59.71;99956.22;5001339;28;20285;-80
2023/04/05 01:52:25;;;;;;;9.00;5.00;;;;;;;2.90;59.26;99954.41;5001035;28;20738;-80
2023/04/05 01:54:51;;;;;;;5.10;4.20;;;;;;;2.93;58.96;99956.91;5017753;28;20192;-80
2023/04/05 01:57:16;;;;;;;4.40;3.87;;;;;;;2.90;58.36;99949.22;4999938;28;20297;-80
2023/04/05 01:59:41;;;;;;;4.70;4.30;;;;;;;2.90;58.49;99946.63;5000432;28;20797;-80
2023/04/05 02:02:07;;;;;;;6.50;5.10;;;;;;;2.91;58.39;99943.13;5019315;28;20207;-80
2023/04/05 02:04:32;;;;;;;6.50;4.07;;;;;;;2.93;58.25;99943.94;5000662;28;20308;-80
2023/04/05 02:06:58;;;;;;;4.60;4.13;;;;;;;2.96;58.14;99949.03;4999865;28;20204;-81
2023/04/05 02:09:23;;;;;;;7.63;4.30;;;;;;;3.01;57.97;99939.41;5018816;28;20200;-80
2023/04/05 02:11:48;;;;;;;4.13;3.60;;;;;;;3.04;58.02;99937.56;5017370;28;20218;-80
2023/04/05 02:14:14;;;;;;;4.97;4.33;;;;;;;3.07;58.02;99934.03;5018662;28;20232;-80
2023/04/05 02:16:40;;;;;;;7.32;4.88;;;;;;;3.04;57.93;99934.13;5001376;28;20211;-80
2023/04/05 02:19:05;;;;;;;4.17;3.73;;;;;;;3.03;58.12;99935.03;5001347;28;20303;-80
2023/04/05 02:21:31;;;;;;;5.73;4.27;;;;;;;3.02;58.28;99930.72;5018322;28;20558;-80
2023/04/05 02:23:56;;;;;;;6.27;4.30;;;;;;;3.02;58.34;99934.16;5018973;28;20304;-80
2023/04/05 02:26:22;;;;;;;5.23;4.23;;;;;;;3.02;58.05;99938.50;5018223;28;20236;-80
2023/04/05 02:28:47;;;;;;;8.23;5.37;;;;;;;3.00;57.88;99933.38;4999973;28;20272;-81
2023/04/05 02:31:13;;;;;;;6.80;4.73;;;;;;;2.99;58.04;99931.63;5018569;28;20221;-81
2023/04/05 02:33:41;;;;;;;6.28;4.30;;;;;;;2.98;57.66;99929.09;5000450;28;20277;-80
2023/04/05 02:36:10;;;;;;;9.57;6.07;;;;;;;3.02;58.14;99928.97;5016818;28;20459;-81
2023/04/05 02:38:36;;;;;;;4.80;4.40;;;;;;;3.01;58.33;99937.66;5000692;28;20201;-80
2023/04/05 02:41:01;;;;;;;5.30;4.80;;;;;;;3.00;58.33;99937.72;5018069;28;20893;-80
2023/04/05 02:43:27;;;;;;;7.13;5.70;;;;;;;2.97;57.96;99932.56;5018053;28;20210;-80
2023/04/05 02:45:53;;;;;;;8.13;4.60;;;;;;;2.92;57.95;99945.69;5018087;28;20204;-80
2023/04/05 02:48:18;;;;;;;6.53;4.70;;;;;;;2.90;57.83;99941.44;5018387;28;20540;-80
2023/04/05 02:50:48;;;;;;;5.95;4.30;;;;;;;2.84;58.09;99940.72;5000199;28;20594;-80
2023/04/05 02:53:15;;;;;;;6.38;4.72;;;;;;;2.76;58.30;99942.66;5001336;28;20232;-80
2023/04/05 02:55:41;;;;;;;6.35;4.95;;;;;;;2.71;58.23;99939.31;5000339;28;20202;-80
2023/04/05 02:58:07;;;;;;;7.70;4.90;;;;;;;2.69;58.11;99932.47;5000326;28;20200;-81
2023/04/05 03:00:39;;;;;;;7.03;5.28;;;;;;;2.64;58.37;99924.81;4997334;28;20278;-80
2023/04/05 03:03:05;;;;;;;5.80;4.20;;;;;;;2.57;58.64;99926.72;4995743;28;20292;-80
2023/04/05 03:05:32;;;;;;;5.80;4.72;;;;;;;2.56;58.36;99926.75;4995916;28;20203;-80
2023/04/05 03:08:01;;;;;;;6.40;5.63;;;;;;;2.54;58.54;99929.41;4999520;28;20198;-81
2023/04/05 03:10:33;;;;;;;8.50;5.20;;;;;;;2.52;58.74;99922.53;4998706;28;20222;-80
2023/04/05 03:13:03;;;;;;;6.03;5.45;;;;;;;2.50;58.67;99926.91;4999417;28;20204;-80
2023/04/05 03:15:31;;;;;;;7.60;4.60;;;;;;;2.44;58.95;99928.75;4997670;28;20195;-80
2023/04/05 03:17:58;;;;;;;5.90;5.40;;;;;;;2.45;58.85;99929.63;4999503;28;20197;-81
2023/04/05 03:20:23;;;;;;;5.40;4.90;;;;;;;2.41;59.37;99944.41;4992665;28;20221;-81
2023/04/05 03:22:52;;;;;;;6.78;4.72;;;;;;;2.35;59.05;99923.81;4997242;28;20513;-80
2023/04/05 03:25:17;;;;;;;6.00;5.40;;;;;;;2.30;59.40;99932.59;4999618;28;20217;-80
2023/04/05 03:27:46;;;;;;;14.70;6.35;;;;;;;2.25;59.89;99924.94;4996653;28;20255;-79
2023/04/05 03:30:15;;;;;;;6.15;4.85;;;;;;;2.22;59.53;99918.09;4995660;28;20211;-80
2023/04/05 03:32:50;;;;;;;8.27;4.70;;;;;;;2.21;59.40;99924.16;4994709;28;20242;-80
2023/04/05 03:35:42;;;;;;;8.00;5.65;;;;;;;2.21;59.65;99923.28;4997552;28;20189;-80
2023/04/05 03:38:09;;;;;;;6.72;6.18;;;;;;;2.21;59.69;99915.53;4994104;28;20199;-80
2023/04/05 03:40:40;;;;;;;4.93;4.53;;;;;;;2.22;59.62;99925.84;4981326;28;20238;-80
2023/04/05 03:43:08;;;;;;;5.68;5.13;;;;;;;2.25;59.65;99916.31;4997291;28;20189;-80
2023/04/05 03:45:33;;;;;;;7.80;5.10;;;;;;;2.26;59.55;99923.19;4997836;28;20203;-80
2023/04/05 03:47:59;;;;;;;6.10;5.00;;;;;;;2.22;59.68;99928.44;4999034;28;20196;-79
2023/04/05 03:50:25;;;;;;;5.93;5.15;;;;;;;2.19;59.83;99914.72;4998500;28;20209;-79
2023/04/05 03:52:52;;;;;;;10.43;5.40;;;;;;;2.15;60.07;99915.69;4997167;28;20228;-80
2023/04/05 03:55:18;;;;;;;8.32;5.78;;;;;;;2.11;60.00;99919.25;4997982;28;20225;-79
2023/04/05 03:57:44;;;;;;;7.28;6.57;;;;;;;2.02;61.07;99922.03;4997943;28;20232;-80
2023/04/05 04:00:23;;;;;;;8.65;6.63;;;;;;;1.93;61.01;99925.69;4996759;28;20231;-80
2023/04/05 04:03:06;;;;;;;8.00;6.32;;;;;;;1.90;61.35;99928.38;4983441;28;20200;-80
2023/04/05 04:05:37;;;;;;;7.43;6.82;;;;;;;1.89;60.98;99919.75;4997237;28;20203;-80
2023/04/05 04:08:05;;;;;;;7.75;6.60;;;;;;;1.86;61.43;99924.13;4991973;28;20264;-79
2023/04/05 04:10:30;;;;;;;9.10;5.82;;;;;;;1.86;61.31;99926.72;4997962;28;20213;-79
2023/04/05 04:12:57;;;;;;;6.88;6.15;;;;;;;1.88;61.40;99917.19;4997786;28;20693;-80
2023/04/05 04:15:27;;;;;;;8.02;5.13;;;;;;;1.93;61.18;99921.38;4997307;28;20678;-80
2023/04/05 04:18:09;;;;;;;6.60;5.90;;;;;;;1.97;61.28;99927.31;4996974;28;20552;-80
2023/04/05 04:20:52;;;;;;;7.75;6.00;;;;;;;2.02;60.89;99927.22;4998252;28;20221;-80
2023/04/05 04:23:37;;;;;;;6.47;5.00;;;;;;;2.04;60.57;99917.69;4998684;28;20680;-80
2023/04/05 04:26:25;;;;;;;9.50;6.95;;;;;;;2.08;60.81;99921.88;4998399;28;20188;-80
2023/04/05 04:29:16;;;;;;;7.78;5.57;;;;;;;2.13;60.55;99926.09;4998056;28;20699;-80
2023/04/05 04:31:59;;;;;;;8.10;4.90;;;;;;;2.18;60.36;99931.16;5012556;28;20210;-80
2023/04/05 04:34:58;;;;;;;8.43;6.50;;;;;;;2.24;60.47;99932.72;4996897;28;20196;-80
2023/04/05 04:37:37;;;;;;;7.65;6.05;;;;;;;2.29;60.17;99934.31;4996692;28;20674;-80
2023/04/05 04:40:49;;;;;;;7.18;6.45;;;;;;;2.31;60.25;99936.88;4957049;29;20248;-80
2023/04/05 04:43:28;;;;;;;6.05;5.45;;;;;;;2.32;60.21;99936.00;4941740;29;20205;-80
2023/04/05 04:46:13;;;;;;;8.27;6.25;;;;;;;2.35;60.25;99943.69;4984792;28;20196;-80
2023/04/05 04:49:04;;;;;;;9.75;6.15;;;;;;;2.33;60.35;99948.94;4996639;28;20193;-80
2023/04/05 04:51:33;;;;;;;8.07;6.00;;;;;;;2.29;60.64;99944.69;4997527;28;20265;-80
2023/04/05 04:53:58;;;;;;;10.30;7.83;;;;;;;2.27;60.49;99949.09;4997830;28;20192;-80
2023/04/05 04:56:24;;;;;;;6.50;5.90;;;;;;;2.25;60.57;99948.25;4999353;28;20654;-80
2023/04/05 04:58:53;;;;;;;9.88;7.13;;;;;;;2.21;61.10;99947.50;4998698;28;20211;-81
2023/04/05 05:01:21;;;;;;;7.93;5.97;;;;;;;2.18;60.84;99951.88;5001148;23;20349;-83
2023/04/05 05:03:46;;;;;;;8.85;8.02;;;;;;;2.10;61.38;99943.44;4941899;28;20265;-83
2023/04/05 05:06:18;;;;;;;8.30;6.00;;;;;;;2.03;61.47;99952.25;4975407;28;20311;-83
2023/04/05 05:08:46;;;;;;;8.10;6.68;;;;;;;1.98;61.66;99947.19;4995465;28;20276;-83
2023/04/05 05:11:11;;;;;;;9.65;7.57;;;;;;;1.99;61.47;99952.31;4995586;28;20229;-82
2023/04/05 05:13:37;;;;;;;8.60;6.67;;;;;;;2.02;61.48;99953.13;4995384;28;20205;-82
2023/04/05 05:16:03;;;;;;;7.20;6.40;;;;;;;1.98;61.57;99952.34;4994136;28;20193;-82
2023/04/05 05:18:28;;;;;;;14.95;7.28;;;;;;;1.94;61.74;99954.16;4993633;28;20209;-83
2023/04/05 05:20:54;;;;;;;6.70;5.40;;;;;;;1.97;61.82;99961.00;4994401;28;20614;-82
2023/04/05 05:23:20;;;;;;;9.90;6.97;;;;;;;1.99;61.26;99959.22;4975897;28;20207;-82
2023/04/05 05:25:46;;;;;;;7.83;6.10;;;;;;;2.03;61.65;99960.03;4995060;28;20811;-83
2023/04/05 05:28:13;;;;;;;7.82;7.03;;;;;;;2.05;61.56;99953.06;4994922;28;20369;-82
2023/04/05 05:30:38;;;;;;;11.60;7.70;;;;;;;2.10;61.58;99956.38;4994924;28;20682;-82
2023/04/05 05:33:03;;;;;;;10.00;7.23;;;;;;;2.12;61.44;99950.28;4994614;28;20202;-82
2023/04/05 05:35:29;;;;;;;9.27;8.37;;;;;;;2.16;61.68;99951.94;4994117;28;20793;-82
2023/04/05 05:37:54;;;;;;;8.20;7.00;;;;;;;2.15;61.67;99952.81;4994697;28;20267;-81
2023/04/05 05:40:20;;;;;;;9.60;7.57;;;;;;;2.16;61.82;99953.66;4994486;28;20275;-83
2023/04/05 05:42:45;;;;;;;9.00;6.67;;;;;;;2.19;61.53;99953.59;4994262;28;20211;-82
2023/04/05 05:45:11;;;;;;;7.60;6.60;;;;;;;2.23;61.53;99965.59;4993385;28;20601;-82
2023/04/05 05:47:36;;;;;;;9.30;7.60;;;;;;;2.27;61.61;99968.94;4994748;28;20484;-82
2023/04/05 05:50:02;;;;;;;12.37;7.30;;;;;;;2.28;61.48;99968.06;4992412;28;20214;-82
2023/04/05 05:52:28;;;;;;;8.30;6.47;;;;;;;2.29;61.65;99970.59;4993211;28;20245;-83
2023/04/05 05:54:53;;;;;;;7.33;6.70;;;;;;;2.33;61.40;99967.06;4993762;28;20498;-82
2023/04/05 05:57:19;;;;;;;11.70;7.80;;;;;;;2.39;61.62;99966.06;4993412;28;20212;-82
2023/04/05 05:59:44;;;;;;;12.23;7.10;;;;;;;2.47;61.09;99973.66;4993336;28;20217;-83
2023/04/05 06:02:10;;;;;;;8.20;6.90;;;;;;;2.87;60.46;99971.75;4991152;28;20266;-82
2023/04/05 06:04:36;;;;;;;10.90;6.90;;;;;;;3.56;59.77;99971.56;4995439;28;20203;-82
2023/04/05 06:07:03;;;;;;;8.38;6.78;;;;;;;4.23;57.97;99960.88;4995567;28;20197;-82
2023/04/05 06:09:28;;;;;;;7.20;6.50;;;;;;;4.58;56.94;99972.72;4995495;28;20202;-82
2023/04/05 06:11:55;;;;;;;8.67;6.10;;;;;;;4.68;56.23;99962.03;4995351;28;20227;-82
2023/04/05 06:14:20;;;;;;;8.82;6.25;;;;;;;4.55;56.19;99967.63;4994565;28;20211;-82
2023/04/05 06:16:46;;;;;;;8.93;7.83;;;;;;;4.35;56.78;99967.47;4997410;28;20358;-82
2023/04/05 06:19:12;;;;;;;9.53;6.93;;;;;;;4.34;56.88;99963.13;4996227;28;20292;-82
2023/04/05 06:21:37;;;;;;;12.70;7.83;;;;;;;4.76;56.34;99965.22;4992765;28;20332;-82
2023/04/05 06:24:02;;;;;;;8.40;7.50;;;;;;;5.32;55.31;99960.63;4994110;28;20624;-82
2023/04/05 06:26:28;;;;;;;9.40;8.50;;;;;;;5.90;54.08;99961.94;4994301;28;20232;-82
2023/04/05 06:28:55;;;;;;;10.80;8.45;;;;;;;6.28;52.92;99951.78;4994597;28;20209;-82
2023/04/05 06:31:26;;;;;;;6.80;6.10;;;;;;;6.26;52.34;99951.00;4994148;28;20240;-82
2023/04/05 06:33:52;;;;;;;19.63;8.20;;;;;;;6.07;52.52;99950.88;4994025;28;20204;-82
2023/04/05 06:36:17;;;;;;;8.30;6.60;;;;;;;5.78;53.21;99965.88;4994171;28;20242;-83
2023/04/05 06:38:42;;;;;;;10.40;7.10;;;;;;;5.47;53.82;99956.59;4993986;28;20225;-82
2023/04/05 06:41:08;;;;;;;9.90;7.47;;;;;;;5.19;54.42;99961.97;4993431;28;20258;-82
2023/04/05 06:43:33;;;;;;;7.30;6.50;;;;;;;5.01;54.85;99962.63;4993434;28;20220;-82
2023/04/05 06:45:59;;;;;;;8.67;7.43;;;;;;;4.81;55.08;99966.78;4992879;28;20219;-82
2023/04/05 06:48:27;;;;;;;7.83;5.80;;;;;;;4.58;55.64;99964.94;4993255;28;20235;-82
2023/04/05 06:51:00;;;;;;;7.63;6.10;;;;;;;4.40;55.98;99968.13;4992837;28;20505;-82
2023/04/05 06:53:26;;;;;;;8.88;6.80;;;;;;;4.30;55.99;99974.56;4991913;28;20208;-82
2023/04/05 06:55:56;;;;;;;7.38;6.63;;;;;;;4.22;56.30;99965.22;4992694;28;20885;-82
2023/04/05 06:58:22;;;;;;;7.05;6.25;;;;;;;4.18;56.43;99979.22;4993071;28;20638;-81
2023/04/05 07:00:51;;;;;;;9.18;7.13;;;;;;;4.14;56.50;99974.19;4992654;28;20243;-82
2023/04/05 07:03:17;;;;;;;11.00;7.20;;;;;;;4.10;56.79;99964.75;4992604;28;20576;-82
2023/04/05 07:05:53;;;;;;;9.70;6.32;;;;;;;4.08;56.71;99984.75;4992445;28;20198;-82
2023/04/05 07:08:22;;;;;;;8.80;7.90;;;;;;;4.04;56.71;99978.81;4993479;28;20234;-83
2023/04/05 07:10:49;;;;;;;8.90;7.45;;;;;;;4.06;56.90;99964.03;4993281;28;20225;-83
2023/04/05 07:13:16;;;;;;;10.40;8.50;;;;;;;4.09;57.08;99968.28;4993526;28;20203;-82
2023/04/05 07:15:42;;;;;;;7.13;5.90;;;;;;;4.12;57.13;99965.56;4993407;28;20214;-82
2023/04/05 07:18:08;;;;;;;5.55;4.80;;;;;;;4.13;56.98;99967.25;4992652;28;20229;-82
2023/04/05 07:20:33;;;;;;;10.60;6.73;;;;;;;4.16;57.11;99969.78;4994536;28;20227;-82
2023/04/05 07:22:59;;;;;;;8.97;6.10;;;;;;;4.18;57.10;99968.81;4998385;28;20223;-82
2023/04/05 07:25:24;;;;;;;10.10;6.50;;;;;;;4.26;57.27;99965.97;4999521;28;20225;-82
2023/04/05 07:27:51;;;;;;;8.63;6.80;;;;;;;4.31;57.01;99969.28;4999876;28;20216;-82
2023/04/05 07:30:17;;;;;;;8.02;6.50;;;;;;;4.35;57.11;99975.25;5001101;28;20288;-83
2023/04/05 07:32:42;;;;;;;9.87;7.10;;;;;;;4.37;57.24;99970.84;4995819;28;20330;-82
2023/04/05 07:35:08;;;;;;;8.30;7.43;;;;;;;4.52;57.39;99972.94;4992851;28;20461;-83
2023/04/05 07:37:33;;;;;;;13.87;7.50;;;;;;;5.13;56.54;99967.41;4994018;28;20528;-83
2023/04/05 07:39:59;;;;;;;8.07;6.10;;;;;;;6.10;54.52;99964.66;4990925;28;20237;-83
2023/04/05 07:42:26;;;;;;;8.40;7.23;;;;;;;7.05;52.18;99959.88;4994188;28;20219;-82
2023/04/05 07:44:52;;;;;;;9.10;7.13;;;;;;;7.87;50.11;99952.66;4995483;28;20218;-83
2023/04/05 07:47:17;;;;;;;10.23;7.17;;;;;;;8.61;48.27;99947.38;4977619;28;20189;-83
2023/04/05 07:49:43;;;;;;;10.90;8.50;;;;;;;9.13;47.35;99949.09;4995495;28;20269;-84
2023/04/05 07:52:08;;;;;;;9.43;6.40;;;;;;;9.32;46.71;99948.97;4993608;28;20685;-83
2023/04/05 07:54:37;;;;;;;12.13;7.57;;;;;;;9.32;46.33;99956.84;4993725;28;20248;-82
2023/04/05 07:57:02;;;;;;;8.60;6.25;;;;;;;9.46;45.96;99954.31;4993401;28;20219;-83
2023/04/05 07:59:28;;;;;;;9.53;6.40;;;;;;;9.82;44.85;99961.13;4993160;28;20603;-82
2023/04/05 08:01:53;;;;;;;12.13;7.23;;;;;;;10.06;44.25;99953.66;4997266;28;20669;-84
2023/04/05 08:04:19;;;;;;;8.67;6.70;;;;;;;10.45;43.49;99954.13;4992690;28;20612;-80
2023/04/05 08:06:46;;;;;;;7.90;6.80;;;;;;;11.01;42.33;99949.97;4990836;28;20331;-80
2023/04/05 08:09:12;;;;;;;9.90;7.20;;;;;;;11.58;40.85;99938.59;4990667;28;20457;-81
2023/04/05 08:11:37;;;;;;;6.83;5.40;;;;;;;11.90;39.92;99949.75;4992240;28;20214;-80
2023/04/05 08:14:02;;;;;;;6.80;6.03;;;;;;;12.22;39.47;99944.22;4990766;28;20208;-80
2023/04/05 08:16:29;;;;;;;7.40;6.20;;;;;;;12.60;38.57;99937.25;4993124;28;20193;-83
2023/04/05 08:18:55;;;;;;;6.28;5.32;;;;;;;13.03;37.95;99930.88;4977526;28;20191;-84
2023/04/05 08:21:21;;;;;;;6.60;5.77;;;;;;;13.42;37.14;99918.53;4994953;28;20880;-83
2023/04/05 08:23:48;;;;;;;6.95;6.28;;;;;;;13.79;36.28;99922.03;4996035;28;20243;-85
2023/04/05 08:26:14;;;;;;;7.93;5.47;;;;;;;13.97;35.51;99921.69;4994536;28;20203;-84
2023/04/05 08:28:40;;;;;;;12.57;6.30;;;;;;;14.13;34.97;99920.44;4994747;28;20266;-83
2023/04/05 08:31:05;;;;;;;7.17;6.23;;;;;;;14.29;34.68;99925.44;4994364;28;20967;-84
2023/04/05 08:33:31;;;;;;;6.60;4.73;;;;;;;14.26;33.29;99928.31;4994007;28;20184;-82
2023/04/05 08:35:56;;;;;;;8.30;6.83;;;;;;;14.27;32.42;99924.69;4992300;28;20508;-83
2023/04/05 08:38:22;;;;;;;7.20;6.03;;;;;;;14.29;32.10;99920.16;4992832;28;20747;-83
2023/04/05 08:40:48;;;;;;;7.50;5.30;;;;;;;14.33;32.01;99923.41;4993663;28;20224;-83
2023/04/05 08:43:22;;;;;;;7.20;5.40;;;;;;;14.33;31.53;99924.25;4993808;28;20424;-83
2023/04/05 08:45:50;;;;;;;6.35;5.85;;;;;;;14.35;31.00;99919.69;4993383;28;20192;-85
2023/04/05 08:48:16;;;;;;;5.00;4.60;;;;;;;14.29;30.44;99921.97;4993229;28;20185;-83
2023/04/05 08:50:49;;;;;;;5.40;4.53;;;;;;;14.12;30.81;99923.19;4993452;28;20210;-83
2023/04/05 08:53:15;;;;;;;8.48;5.70;;;;;;;14.11;30.79;99922.34;4993118;28;20197;-83
2023/04/05 08:55:40;;;;;;;6.67;5.73;;;;;;;14.16;30.77;99922.84;4994132;28;20674;-83
2023/04/05 08:58:15;;;;;;;5.20;4.70;;;;;;;14.11;30.74;99919.69;4975715;28;20204;-83
2023/04/05 09:00:42;;;;;;;4.32;3.92;;;;;;;13.91;30.89;99921.16;4994174;28;20338;-83
2023/04/05 09:03:14;;;;;;;6.47;5.85;;;;;;;13.90;31.16;99916.81;4993487;28;20197;-82
2023/04/05 09:05:43;;;;;;;8.23;5.80;;;;;;;13.73;31.52;99923.31;4994838;28;20193;-83
2023/04/05 09:08:08;;;;;;;6.70;5.75;;;;;;;13.37;31.78;99918.88;4996003;28;20201;-83
2023/04/05 09:10:34;;;;;;;6.90;6.20;;;;;;;13.00;32.43;99920.56;4994925;28;20251;-83
2023/04/05 09:13:01;;;;;;;7.07;5.30;;;;;;;12.55;32.80;99920.91;4993174;28;20197;-82
2023/04/05 09:15:27;;;;;;;6.25;5.65;;;;;;;12.23;33.32;99919.56;4994205;28;20639;-82
2023/04/05 09:17:54;;;;;;;6.40;5.10;;;;;;;11.92;33.40;99921.56;4993337;28;20216;-83
2023/04/05 09:20:19;;;;;;;7.93;5.68;;;;;;;11.64;34.23;99923.28;4993270;28;20236;-82
2023/04/05 09:22:45;;;;;;;6.30;5.03;;;;;;;11.48;34.77;99923.41;4993472;28;20198;-82
2023/04/05 09:25:31;;;;;;;5.68;5.18;;;;;;;11.48;34.94;99919.94;4994882;28;20243;-82
2023/04/05 09:27:58;;;;;;;10.63;5.70;;;;;;;11.52;34.79;99918.78;4992452;28;20237;-83
2023/04/05 09:30:26;;;;;;;6.07;5.47;;;;;;;11.55;34.45;99915.97;4993054;28;20233;-82
2023/04/05 09:32:53;;;;;;;4.97;4.22;;;;;;;11.72;34.07;99912.28;4994497;28;20207;-83
2023/04/05 09:35:39;;;;;;;6.57;5.88;;;;;;;11.81;33.11;99909.06;4993549;28;20442;-84
2023/04/05 09:38:05;;;;;;;6.07;5.15;;;;;;;11.77;33.33;99901.44;4996189;28;20211;-84
2023/04/05 09:40:47;;;;;;;6.18;5.57;;;;;;;11.76;33.53;99905.03;4995406;28;20296;-82
2023/04/05 09:43:36;;;;;;;5.53;4.32;;;;;;;11.76;33.86;99908.50;4980423;28;20210;-84
2023/04/05 09:46:02;;;;;;;5.63;5.13;;;;;;;11.79;33.67;99902.19;4997147;28;20680;-83
2023/04/05 09:48:48;;;;;;;5.73;5.13;;;;;;;11.79;33.68;99895.16;4997106;28;20208;-83
2023/04/05 09:51:15;;;;;;;6.40;4.90;;;;;;;11.84;33.46;99898.34;4998003;28;20225;-82
2023/04/05 09:54:00;;;;;;;6.97;5.63;;;;;;;11.85;33.31;99900.00;4996738;28;20266;-83
2023/04/05 09:56:31;;;;;;;6.10;5.50;;;;;;;11.97;33.23;99897.59;4998852;28;20201;-83
2023/04/05 09:59:03;;;;;;;8.05;5.50;;;;;;;12.14;32.97;99895.53;4998928;28;20205;-84
2023/04/05 10:01:31;;;;;;;7.25;5.43;;;;;;;12.30;32.54;99891.91;4996056;28;20259;-83
2023/04/05 10:03:58;;;;;;;8.68;6.03;;;;;;;12.29;32.56;99896.31;4998065;28;20206;-83
2023/04/05 10:06:34;;;;;;;7.95;5.90;;;;;;;12.14;32.49;99892.91;4997638;28;20220;-84
2023/04/05 10:08:59;;;;;;;5.38;4.60;;;;;;;12.12;32.80;99889.53;4997823;28;20202;-83
2023/04/05 10:11:25;;;;;;;6.47;4.37;;;;;;;12.22;32.93;99883.66;4998223;28;20215;-83
2023/04/05 10:13:50;;;;;;;9.47;6.00;;;;;;;12.35;33.00;99881.91;4998115;28;20616;-82
2023/04/05 10:16:21;;;;;;;8.53;5.40;;;;;;;12.49;32.90;99887.06;4997378;28;20204;-82
2023/04/05 10:18:50;;;;;;;7.72;5.63;;;;;;;12.52;32.84;99883.41;4997567;28;20201;-84
2023/04/05 10:21:22;;;;;;;7.82;5.60;;;;;;;12.56;32.93;99884.88;4997200;28;20247;-82
2023/04/05 10:23:57;;;;;;;6.15;4.95;;;;;;;12.59;32.83;99884.69;4980959;28;20204;-85
2023/04/05 10:26:38;;;;;;;5.75;5.10;;;;;;;12.65;32.83;99881.63;4996626;28;20217;-83
2023/04/05 10:29:10;;;;;;;5.55;5.05;;;;;;;12.66;32.76;99885.09;4977710;28;20205;-83
2023/04/05 10:32:22;;;;;;;5.97;4.70;;;;;;;12.61;32.96;99888.06;4997335;28;20222;-83
2023/04/05 10:34:59;;;;;;;6.60;5.72;;;;;;;12.62;32.81;99885.31;4995622;28;20523;-85
2023/04/05 10:37:44;;;;;;;6.68;6.07;;;;;;;12.63;32.81;99884.34;4995682;28;20488;-82
2023/04/05 10:40:11;;;;;;;6.50;5.28;;;;;;;12.68;32.84;99878.78;4995969;28;20232;-83
2023/04/05 10:42:42;;;;;;;6.38;5.80;;;;;;;12.70;32.78;99876.03;4995386;28;20201;-83
2023/04/05 10:45:13;;;;;;;5.80;4.88;;;;;;;12.83;32.67;99879.53;4995642;28;20727;-85
2023/04/05 10:47:44;;;;;;;5.97;5.55;;;;;;;12.86;32.01;99871.41;4995304;28;20768;-83
2023/04/05 10:50:19;;;;;;;9.63;5.40;;;;;;;12.79;31.73;99878.03;4994021;28;20197;-82
2023/04/05 10:52:46;;;;;;;5.28;4.13;;;;;;;12.79;31.80;99873.59;4995906;28;20205;-82
2023/04/05 10:55:11;;;;;;;10.68;6.57;;;;;;;12.78;31.73;99869.28;4997098;28;20734;-83
2023/04/05 10:57:37;;;;;;;6.07;5.47;;;;;;;12.63;32.03;99865.91;4995093;28;20216;-82
2023/04/05 11:02:52;;;;;;;6.75;6.03;;;;;;;12.41;32.43;99863.03;4930772;28;20391;-77
2023/04/05 11:05:32;;;;;;;6.68;5.47;;;;;;;12.35;32.23;99866.09;4935791;28;20447;-77
2023/04/05 11:08:07;;;;;;;5.70;5.30;;;;;;;12.26;32.48;99862.28;4948474;28;20227;-77
2023/04/05 11:10:35;;;;;;;5.65;5.25;;;;;;;12.30;32.35;99868.19;4947407;28;20578;-77
2023/04/05 11:13:01;;;;;;;7.03;5.60;;;;;;;12.29;32.26;99866.50;4946509;28;20209;-77
2023/04/05 11:15:26;;;;;;;5.50;5.00;;;;;;;12.30;32.41;99868.19;4946201;29;20210;-77
2023/04/05 11:18:07;;;;;;;7.77;5.23;;;;;;;12.26;32.26;99861.41;4946664;29;20299;-77
2023/04/05 11:20:54;;;;;;;5.93;5.43;;;;;;;12.15;32.46;99855.09;4946029;28;20267;-77
2023/04/05 11:23:22;;;;;;;8.43;5.43;;;;;;;12.17;32.17;99855.81;4946181;29;20683;-77
2023/04/05 11:25:58;;;;;;;5.35;4.85;;;;;;;12.18;32.20;99848.78;4946092;29;20323;-77
2023/04/05 11:28:28;;;;;;;6.75;6.15;;;;;;;12.13;32.16;99846.44;4946126;29;20209;-77
2023/04/05 11:30:57;;;;;;;8.82;4.70;;;;;;;12.19;32.13;99845.19;4946021;28;20679;-77
2023/04/05 11:33:53;;;;;;;8.02;5.47;;;;;;;12.15;31.87;99849.84;4945887;29;20200;-77
2023/04/05 11:36:35;;;;;;;8.30;6.37;;;;;;;12.13;31.90;99845.59;4944167;29;20536;-77
2023/04/05 11:39:22;;;;;;;5.95;5.32;;;;;;;12.10;32.10;99846.66;4945742;29;20473;-77
2023/04/05 11:42:05;;;;;;;6.22;4.70;;;;;;;12.13;32.32;99845.59;4945629;28;20245;-78
2023/04/05 11:44:46;;;;;;;6.13;5.15;;;;;;;12.12;32.22;99838.63;4945353;29;20211;-78
2023/04/05 11:47:12;;;;;;;7.53;4.93;;;;;;;12.10;32.34;99830.84;4946038;29;20329;-77
2023/04/05 11:49:40;;;;;;;7.57;5.30;;;;;;;12.10;32.45;99833.50;4946153;28;20206;-77
2023/04/05 11:52:12;;;;;;;6.15;4.75;;;;;;;12.09;32.53;99839.69;4945988;28;20222;-77